Time;durP1;ratioP1;P1;durP2;ratioP2;P2;SDS_P1;SDS_P2;PMS_P1;PMS_P2;Temp;Humidity;BMP_temperature;BMP_pressure;BME280_temperature;BME280_humidity;BME280_pressure;Samples;Min_cycle;Max_cycle;Signal;HPM_P1;HPM_P2
2022/02/03 00:00:22;;;;;;;13.57;8.20;;;;;;;5.88;100.00;98858.97;5113796;28;20219;-66
2022/02/03 00:03:01;;;;;;;10.47;7.90;;;;;;;5.91;100.00;98856.22;5113893;28;20242;-64
2022/02/03 00:08:29;;;;;;;8.60;7.47;;;;;;;5.97;100.00;98855.97;5112459;28;20293;-64
2022/02/03 00:17:00;;;;;;;11.03;8.43;;;;;;;6.00;100.00;98855.00;5114294;28;20220;-64
2022/02/03 00:22:20;;;;;;;9.13;7.57;;;;;;;6.03;100.00;98850.47;5114091;28;20371;-64
2022/02/03 00:24:58;;;;;;;10.20;8.00;;;;;;;6.04;100.00;98846.09;5112260;28;20751;-65
2022/02/03 00:27:52;;;;;;;11.17;8.93;;;;;;;6.01;100.00;98848.81;5101046;28;20308;-63
2022/02/03 00:30:22;;;;;;;12.90;8.63;;;;;;;6.01;100.00;98844.44;5113832;28;20592;-64
2022/02/03 00:35:52;;;;;;;9.77;8.73;;;;;;;6.03;100.00;98839.13;5113774;27;20219;-64
2022/02/03 00:48:14;;;;;;;12.73;10.23;;;;;;;6.01;100.00;98841.81;5114012;28;20571;-64
2022/02/03 00:49:43;;;;;;;12.00;9.33;;;;;;;5.98;100.00;98836.69;5113734;28;20215;-64
2022/02/03 00:52:10;;;;;;;11.77;9.50;;;;;;;5.98;100.00;98831.44;5112191;28;20277;-64
2022/02/03 00:54:37;;;;;;;9.73;8.23;;;;;;;6.02;100.00;98833.03;5113458;28;20684;-65
2022/02/03 00:57:05;;;;;;;12.50;9.57;;;;;;;6.03;100.00;98829.50;5109595;28;20212;-65
2022/02/03 00:59:36;;;;;;;11.93;9.40;;;;;;;6.06;100.00;98839.00;5113653;28;20685;-64
2022/02/03 01:02:08;;;;;;;11.47;9.10;;;;;;;6.10;100.00;98843.22;5113719;28;20234;-64
2022/02/03 01:04:37;;;;;;;11.10;9.37;;;;;;;6.12;100.00;98844.84;5112611;28;20223;-63
2022/02/03 01:07:09;;;;;;;10.13;8.87;;;;;;;6.17;100.00;98842.91;5113702;28;20220;-63
2022/02/03 01:09:41;;;;;;;12.93;9.73;;;;;;;6.18;100.00;98839.34;5113384;28;20211;-63
2022/02/03 01:12:17;;;;;;;11.77;10.40;;;;;;;6.19;100.00;98834.97;5113482;28;20226;-64
2022/02/03 01:14:51;;;;;;;10.90;9.43;;;;;;;6.23;100.00;98837.41;5113372;28;20213;-63
2022/02/03 01:17:31;;;;;;;12.03;8.77;;;;;;;6.27;100.00;98833.75;5111921;28;20214;-63
2022/02/03 01:20:39;;;;;;;10.30;8.90;;;;;;;6.27;100.00;98831.13;5113458;28;20241;-63
2022/02/03 01:34:24;;;;;;;10.63;8.80;;;;;;;6.28;100.00;98824.09;5113222;28;20227;-63
2022/02/03 01:37:13;;;;;;;10.83;8.87;;;;;;;6.29;100.00;98824.03;5113375;28;20221;-63
2022/02/03 01:45:27;;;;;;;12.73;9.93;;;;;;;6.35;100.00;98815.91;5076343;28;20300;-64
2022/02/03 01:48:17;;;;;;;12.10;10.27;;;;;;;6.36;100.00;98811.50;5113256;28;21261;-63
2022/02/03 01:53:32;;;;;;;13.37;9.93;;;;;;;6.33;100.00;98811.63;5112883;28;20325;-63
2022/02/03 01:56:04;;;;;;;14.10;10.83;;;;;;;6.32;100.00;98810.78;5112736;28;20220;-63
2022/02/03 01:58:36;;;;;;;14.27;10.67;;;;;;;6.28;100.00;98798.69;5110684;28;20674;-63
2022/02/03 02:01:04;;;;;;;15.33;11.10;;;;;;;6.23;100.00;98795.41;5103040;28;20217;-63
2022/02/03 02:03:38;;;;;;;14.20;10.97;;;;;;;6.19;100.00;98791.22;5106769;28;20710;-65
2022/02/03 02:06:21;;;;;;;13.60;10.90;;;;;;;6.15;100.00;98788.75;5107046;28;20243;-64
2022/02/03 02:09:03;;;;;;;16.73;12.50;;;;;;;6.17;100.00;98785.16;5101665;28;20214;-63
2022/02/03 02:11:58;;;;;;;14.30;11.77;;;;;;;6.17;100.00;98787.78;5109828;28;20244;-63
2022/02/03 02:36:53;;;;;;;14.50;11.63;;;;;;;6.23;100.00;98786.69;5112532;28;20720;-63
2022/02/03 02:37:22;;;;;;;13.33;10.57;;;;;;;6.27;100.00;98780.38;5116258;28;20263;-63
2022/02/03 02:40:08;;;;;;;14.60;11.50;;;;;;;6.29;100.00;98776.78;5116008;28;20243;-64
2022/02/03 02:42:45;;;;;;;12.30;10.13;;;;;;;6.32;100.00;98770.53;5116166;28;20328;-64
2022/02/03 02:45:13;;;;;;;13.93;10.90;;;;;;;6.41;100.00;98772.78;5116044;28;20742;-64
2022/02/03 02:48:05;;;;;;;12.57;10.43;;;;;;;6.44;100.00;98772.66;5116118;28;20213;-65
2022/02/03 02:50:43;;;;;;;13.83;10.63;;;;;;;6.47;100.00;98778.63;5115872;28;20212;-64
2022/02/03 02:53:21;;;;;;;14.17;10.97;;;;;;;6.49;100.00;98765.44;5116261;28;20217;-64
2022/02/03 02:56:02;;;;;;;12.93;10.70;;;;;;;6.49;100.00;98761.06;5116094;28;20206;-64
2022/02/03 02:59:05;;;;;;;12.63;9.80;;;;;;;6.48;100.00;98763.72;5114655;28;20927;-64
2022/02/03 03:02:11;;;;;;;12.90;10.40;;;;;;;6.46;100.00;98753.28;5114061;28;20215;-64
2022/02/03 03:29:58;;;;;;;12.60;10.13;;;;;;;6.78;100.00;98747.47;5115134;28;20226;-65
2022/02/03 03:32:40;;;;;;;11.80;9.00;;;;;;;6.82;100.00;98742.94;5103392;28;20218;-66
2022/02/03 03:35:29;;;;;;;11.43;8.83;;;;;;;6.80;100.00;98742.16;5115352;28;20266;-65
2022/02/03 03:37:59;;;;;;;12.40;9.13;;;;;;;6.80;100.00;98734.28;5114647;28;20744;-67
2022/02/03 03:40:30;;;;;;;10.50;9.20;;;;;;;6.80;100.00;98724.63;5115465;28;20223;-65
2022/02/03 03:43:02;;;;;;;11.97;9.27;;;;;;;6.77;100.00;98727.38;5114966;28;20241;-65
2022/02/03 03:45:31;;;;;;;12.30;8.83;;;;;;;6.74;100.00;98719.66;5114733;28;20212;-65
2022/02/03 03:48:01;;;;;;;13.17;9.47;;;;;;;6.69;100.00;98721.63;5101485;28;20245;-65
2022/02/03 03:50:29;;;;;;;9.73;8.10;;;;;;;6.68;100.00;98722.56;5115035;28;20545;-65
2022/02/03 03:53:00;;;;;;;13.40;10.53;;;;;;;6.64;100.00;98713.09;5113316;28;20296;-65
2022/02/03 03:55:39;;;;;;;12.60;10.00;;;;;;;6.64;100.00;98715.72;5114501;28;20229;-65
2022/02/03 04:28:52;;;;;;;12.03;9.90;;;;;;;6.65;100.00;98714.78;5077624;28;20663;-67
2022/02/03 04:33:30;;;;;;;12.47;9.63;;;;;;;6.67;100.00;98707.72;5114042;28;20263;-66
2022/02/03 04:37:01;;;;;;;13.60;10.27;;;;;;;6.72;100.00;98700.47;5114012;28;20209;-66
2022/02/03 04:39:56;;;;;;;11.43;8.93;;;;;;;6.75;100.00;98692.47;5102607;28;20306;-66
2022/02/03 04:43:00;;;;;;;11.13;9.10;;;;;;;6.72;100.00;98686.50;5113461;28;20285;-67
2022/02/03 04:57:55;;;;;;;9.27;7.27;;;;;;;6.79;100.00;98674.78;5103082;28;20244;-67
2022/02/03 05:03:39;;;;;;;7.97;5.70;;;;;;;6.73;100.00;98675.91;5113110;27;20238;-66
2022/02/03 05:06:25;;;;;;;7.50;5.83;;;;;;;6.64;100.00;98675.47;5113503;28;20208;-66
2022/02/03 05:09:17;;;;;;;6.70;5.23;;;;;;;6.54;100.00;98675.03;5102710;28;20213;-67
2022/02/03 05:12:20;;;;;;;8.27;5.87;;;;;;;6.43;100.00;98674.66;5111683;28;20709;-67
2022/02/03 05:21:32;;;;;;;8.83;6.43;;;;;;;6.32;100.00;98665.53;5100685;28;20271;-67
2022/02/03 05:24:36;;;;;;;7.73;6.00;;;;;;;6.30;100.00;98664.75;5112018;28;20245;-67
2022/02/03 05:42:07;;;;;;;8.97;6.80;;;;;;;6.00;100.00;98630.22;5113048;28;20219;-67
2022/02/03 05:45:05;;;;;;;9.20;6.70;;;;;;;5.92;100.00;98636.72;5113309;28;20221;-67
2022/02/03 05:48:06;;;;;;;6.80;5.93;;;;;;;5.90;100.00;98628.91;5112871;28;20213;-67
2022/02/03 05:50:51;;;;;;;8.03;6.27;;;;;;;5.86;100.00;98635.19;5112988;28;20218;-67
2022/02/03 06:02:00;;;;;;;9.13;7.27;;;;;;;5.73;100.00;98626.09;5113576;28;20273;-67
2022/02/03 06:04:43;;;;;;;8.67;6.50;;;;;;;5.66;100.00;98632.53;5116186;28;20216;-67
2022/02/03 06:13:01;;;;;;;8.70;7.20;;;;;;;5.68;100.00;98633.28;5116589;28;20248;-67
2022/02/03 06:15:36;;;;;;;9.43;6.80;;;;;;;5.70;100.00;98634.09;5103549;28;20265;-67
2022/02/03 06:23:45;;;;;;;9.33;7.40;;;;;;;5.98;100.00;98620.72;5101284;28;20239;-67
2022/02/03 06:29:00;;;;;;;8.70;7.17;;;;;;;6.02;100.00;98623.13;5114193;28;20268;-67
2022/02/03 06:31:26;;;;;;;9.80;7.40;;;;;;;5.99;100.00;98623.25;5116352;28;20219;-67
2022/02/03 06:33:53;;;;;;;8.87;7.33;;;;;;;5.99;100.00;98623.25;5116601;28;20213;-67
2022/02/03 06:36:20;;;;;;;9.80;7.77;;;;;;;6.07;100.00;98625.53;5116156;28;20212;-67
2022/02/03 06:38:47;;;;;;;9.53;7.53;;;;;;;6.17;100.00;98611.94;5116436;27;20217;-69
2022/02/03 06:41:14;;;;;;;8.40;7.43;;;;;;;6.23;100.00;98609.06;5116473;28;20223;-68
2022/02/03 06:43:42;;;;;;;8.40;7.50;;;;;;;6.28;100.00;98609.69;5115992;28;20233;-68
2022/02/03 06:46:11;;;;;;;8.63;6.83;;;;;;;6.31;100.00;98603.47;5116252;28;20228;-68
2022/02/03 06:48:38;;;;;;;8.03;6.63;;;;;;;6.36;100.00;98597.06;5115882;28;20213;-68
2022/02/03 06:51:10;;;;;;;8.60;6.80;;;;;;;6.39;100.00;98599.56;5116266;28;20221;-68
2022/02/03 06:53:41;;;;;;;8.13;6.83;;;;;;;6.43;100.00;98602.91;5116211;28;20221;-68
2022/02/03 06:56:12;;;;;;;10.17;7.80;;;;;;;6.44;100.00;98605.47;5114431;28;20208;-68
2022/02/03 06:58:43;;;;;;;8.87;6.83;;;;;;;6.53;100.00;98605.03;5116102;28;20217;-68
2022/02/03 07:01:15;;;;;;;6.87;6.17;;;;;;;6.58;100.00;98613.56;5116360;28;20216;-68
2022/02/03 07:03:50;;;;;;;7.83;5.73;;;;;;;6.62;100.00;98612.53;5115953;28;20268;-68
2022/02/03 07:06:17;;;;;;;6.70;5.93;;;;;;;6.66;100.00;98616.69;5114878;28;20231;-68
2022/02/03 07:08:46;;;;;;;8.30;6.43;;;;;;;6.67;100.00;98613.16;5115976;28;20296;-68
2022/02/03 07:11:17;;;;;;;7.43;6.30;;;;;;;6.73;100.00;98618.09;5108792;28;20220;-68
2022/02/03 07:13:43;;;;;;;7.47;6.27;;;;;;;6.74;100.00;98619.84;5112386;28;20321;-68
2022/02/03 07:16:10;;;;;;;7.10;6.03;;;;;;;6.77;100.00;98630.19;5115751;28;20670;-68
2022/02/03 07:18:36;;;;;;;7.67;6.67;;;;;;;6.82;100.00;98627.34;5115482;28;20239;-68
2022/02/03 07:21:03;;;;;;;8.60;6.67;;;;;;;6.86;100.00;98623.66;5113959;28;20216;-68
2022/02/03 07:23:30;;;;;;;7.00;6.10;;;;;;;6.89;100.00;98619.13;5115224;28;20715;-68
2022/02/03 07:25:58;;;;;;;8.20;6.67;;;;;;;6.94;100.00;98622.38;5115485;28;20209;-68
2022/02/03 07:28:24;;;;;;;10.37;7.03;;;;;;;6.99;100.00;98620.41;5115476;28;20217;-68
2022/02/03 07:30:51;;;;;;;9.17;7.07;;;;;;;7.03;100.00;98616.69;5115183;28;20217;-68
2022/02/03 07:33:19;;;;;;;9.47;7.40;;;;;;;7.04;100.00;98615.78;5115051;28;20220;-68
2022/02/03 07:35:46;;;;;;;9.80;7.63;;;;;;;7.12;100.00;98605.75;5114082;28;20221;-68
2022/02/03 07:38:12;;;;;;;7.43;6.63;;;;;;;7.17;100.00;98595.88;5115263;28;20284;-68
2022/02/03 07:40:40;;;;;;;7.67;6.60;;;;;;;7.19;100.00;98596.63;5115254;28;20580;-68
2022/02/03 07:43:10;;;;;;;8.67;6.80;;;;;;;7.21;100.00;98609.72;5114851;28;20263;-68
2022/02/03 07:45:37;;;;;;;8.47;6.40;;;;;;;7.22;100.00;98596.50;5113672;28;20271;-68
2022/02/03 07:48:04;;;;;;;8.27;6.70;;;;;;;7.27;100.00;98594.47;5113493;28;20566;-68
2022/02/03 07:50:31;;;;;;;7.50;6.50;;;;;;;7.30;100.00;98589.91;5114754;28;20212;-69
2022/02/03 07:52:58;;;;;;;8.00;6.73;;;;;;;7.30;100.00;98583.81;5115065;28;20224;-69
2022/02/03 07:55:25;;;;;;;7.03;6.23;;;;;;;7.36;100.00;98573.84;5113220;28;20666;-68
2022/02/03 07:57:53;;;;;;;7.53;6.30;;;;;;;7.39;100.00;98575.47;5115035;28;20214;-68
2022/02/03 08:00:24;;;;;;;6.87;5.93;;;;;;;7.40;100.00;98567.50;5114981;28;20224;-69
2022/02/03 08:02:50;;;;;;;6.00;5.27;;;;;;;7.43;100.00;98564.75;5114697;28;20553;-66
2022/02/03 08:05:19;;;;;;;7.67;6.27;;;;;;;7.45;100.00;98570.75;5114785;28;20218;-68
2022/02/03 08:07:51;;;;;;;8.10;6.97;;;;;;;7.41;100.00;98581.53;5114850;28;20224;-69
2022/02/03 08:10:33;;;;;;;6.57;5.20;;;;;;;7.36;100.00;98563.31;5114681;28;20360;-68
2022/02/03 08:13:02;;;;;;;4.90;4.40;;;;;;;7.44;100.00;98545.41;5112494;28;20244;-68
2022/02/03 08:15:32;;;;;;;5.13;4.17;;;;;;;7.47;100.00;98539.97;5114291;28;20273;-68
2022/02/03 08:18:06;;;;;;;5.07;3.97;;;;;;;7.46;100.00;98537.41;5114432;28;20580;-68
2022/02/03 08:20:32;;;;;;;4.80;4.30;;;;;;;7.49;100.00;98537.28;5114208;28;20299;-68
2022/02/03 08:23:15;;;;;;;5.10;4.13;;;;;;;7.55;100.00;98531.69;5114315;27;20247;-68
2022/02/03 08:25:47;;;;;;;3.97;3.37;;;;;;;7.68;100.00;98535.41;5110652;28;20221;-68
2022/02/03 08:28:33;;;;;;;4.10;3.37;;;;;;;7.76;100.00;98543.75;5109090;28;20213;-68
2022/02/03 08:31:03;;;;;;;4.47;3.47;;;;;;;7.87;100.00;98538.78;5112843;28;20214;-68
2022/02/03 08:33:31;;;;;;;4.13;3.43;;;;;;;7.94;100.00;98540.16;5114206;28;20218;-68
2022/02/03 08:35:59;;;;;;;4.17;3.67;;;;;;;8.01;100.00;98537.13;5113896;28;20223;-68
2022/02/03 08:38:38;;;;;;;4.10;3.70;;;;;;;8.08;100.00;98532.41;5112005;28;20297;-69
2022/02/03 08:41:05;;;;;;;3.47;3.03;;;;;;;8.15;100.00;98528.53;5101431;28;20566;-68
2022/02/03 08:43:33;;;;;;;3.30;2.70;;;;;;;8.23;100.00;98531.63;5113982;28;20240;-68
2022/02/03 08:46:03;;;;;;;3.60;3.07;;;;;;;8.31;100.00;98526.78;5114006;28;20210;-68
2022/02/03 08:48:30;;;;;;;3.07;2.77;;;;;;;8.38;100.00;98533.44;5112178;28;20213;-68
2022/02/03 08:50:56;;;;;;;3.30;3.00;;;;;;;8.42;100.00;98540.22;5113692;28;20214;-69
2022/02/03 08:53:28;;;;;;;3.83;3.13;;;;;;;8.45;100.00;98532.19;5113870;28;20221;-68
2022/02/03 08:56:05;;;;;;;4.23;3.20;;;;;;;8.50;100.00;98520.44;5113576;28;20675;-69
2022/02/03 08:59:00;;;;;;;3.73;3.20;;;;;;;8.56;100.00;98521.91;5112944;28;20308;-68
2022/02/03 09:34:52;;;;;;;6.07;5.30;;;;;;;9.08;100.00;98491.66;5100258;28;20562;-69
2022/02/03 09:37:53;;;;;;;7.40;5.60;;;;;;;9.10;100.00;98488.00;5116962;28;20294;-69
2022/02/03 09:40:37;;;;;;;6.50;5.43;;;;;;;9.09;100.00;98488.94;5106327;28;20675;-69
2022/02/03 09:54:20;;;;;;;6.33;5.07;;;;;;;9.15;100.00;98464.00;5101952;28;20217;-71
2022/02/03 09:59:38;;;;;;;4.90;4.30;;;;;;;9.18;100.00;98453.28;5115028;28;20593;-70
2022/02/03 10:02:10;;;;;;;5.17;4.40;;;;;;;9.34;100.00;98452.28;5114460;28;20616;-70
2022/02/03 10:04:45;;;;;;;4.90;4.10;;;;;;;9.45;100.00;98449.88;5114719;28;20259;-70
2022/02/03 10:07:20;;;;;;;3.97;3.57;;;;;;;9.59;100.00;98452.53;5114132;28;20217;-70
2022/02/03 10:09:47;;;;;;;4.00;3.00;;;;;;;9.66;100.00;98445.09;5112835;28;20242;-70
2022/02/03 10:12:14;;;;;;;3.90;2.80;;;;;;;9.66;100.00;98448.56;5114675;28;20652;-69
2022/02/03 10:14:43;;;;;;;3.00;2.43;;;;;;;9.61;100.00;98455.09;5113524;28;20221;-69
2022/02/03 10:17:10;;;;;;;2.47;2.27;;;;;;;9.61;100.00;98460.34;5114433;28;20675;-69
2022/02/03 10:19:40;;;;;;;2.87;2.20;;;;;;;9.60;100.00;98450.75;5114620;28;20274;-69
2022/02/03 10:22:16;;;;;;;2.70;2.50;;;;;;;9.58;100.00;98442.06;5113918;28;20223;-69
2022/02/03 10:24:47;;;;;;;1.90;1.80;;;;;;;9.56;100.00;98428.13;5112436;28;20486;-69
2022/02/03 10:27:27;;;;;;;2.10;1.90;;;;;;;9.58;100.00;98419.16;5114701;28;20457;-69
2022/02/03 10:30:22;;;;;;;2.27;2.07;;;;;;;9.68;100.00;98419.47;5104669;28;20221;-69
2022/02/03 10:32:49;;;;;;;2.00;1.80;;;;;;;9.75;100.00;98426.91;5114661;28;20252;-69
2022/02/03 10:35:28;;;;;;;2.60;2.00;;;;;;;9.81;100.00;98425.69;5111412;28;20219;-70
2022/02/03 10:41:42;;;;;;;2.03;1.70;;;;;;;10.12;100.00;98399.09;5113824;28;20255;-70
2022/02/03 10:50:02;;;;;;;1.97;1.80;;;;;;;10.37;100.00;98356.94;5104661;28;20607;-70
2022/02/03 10:52:56;;;;;;;1.67;1.50;;;;;;;10.43;100.00;98357.41;5112679;28;20212;-70
2022/02/03 10:55:40;;;;;;;1.60;1.50;;;;;;;10.44;100.00;98352.97;5101674;28;20221;-70
2022/02/03 10:58:23;;;;;;;1.53;1.33;;;;;;;10.38;100.00;98337.50;5096646;28;20237;-70
2022/02/03 11:03:54;;;;;;;1.67;1.50;;;;;;;10.22;100.00;98337.66;5113754;28;20214;-70
2022/02/03 11:06:26;;;;;;;1.83;1.47;;;;;;;10.21;99.11;98325.41;5112579;28;20212;-70
2022/02/03 11:09:02;;;;;;;1.30;1.20;;;;;;;10.14;99.42;98320.59;5113867;28;20211;-70
2022/02/03 11:11:37;;;;;;;1.23;1.13;;;;;;;10.15;100.00;98330.25;5113629;28;20702;-70
2022/02/03 11:14:04;;;;;;;2.23;1.30;;;;;;;10.21;100.00;98319.28;5113049;28;20542;-70
2022/02/03 11:16:32;;;;;;;1.23;1.13;;;;;;;10.30;99.98;98308.09;5113745;28;20237;-70
2022/02/03 11:19:04;;;;;;;1.57;1.30;;;;;;;10.37;99.85;98301.47;5111749;28;20693;-70
2022/02/03 11:21:31;;;;;;;1.30;1.20;;;;;;;10.37;99.56;98282.97;5112673;28;20690;-70
2022/02/03 11:24:04;;;;;;;1.63;1.40;;;;;;;10.42;99.54;98275.59;5113230;28;20226;-70
2022/02/03 11:26:42;;;;;;;1.47;1.37;;;;;;;10.39;99.79;98281.94;5113052;28;20707;-70
2022/02/03 11:29:50;;;;;;;1.60;1.50;;;;;;;10.43;99.21;98280.78;5113038;28;20221;-70
2022/02/03 11:32:41;;;;;;;1.67;1.40;;;;;;;10.50;99.51;98271.50;5110955;28;20206;-70
2022/02/03 11:38:32;;;;;;;1.77;1.43;;;;;;;10.52;98.76;98263.47;5107510;28;20216;-70
2022/02/03 11:41:32;;;;;;;1.30;1.20;;;;;;;10.58;98.34;98240.13;5106267;28;20252;-69
2022/02/03 11:47:26;;;;;;;1.27;1.10;;;;;;;10.67;98.24;98251.88;5106531;28;20217;-71
2022/02/03 11:50:16;;;;;;;1.30;1.20;;;;;;;10.65;96.73;98249.31;5111947;28;20549;-69
2022/02/03 12:05:02;;;;;;;1.80;1.70;;;;;;;10.56;97.85;98218.25;5080895;28;20717;-69
2022/02/03 12:16:17;;;;;;;1.47;1.20;;;;;;;10.74;98.07;98213.47;5101408;28;20228;-72
2022/02/03 12:19:06;;;;;;;2.07;1.50;;;;;;;10.81;98.07;98183.88;5111993;28;20287;-72
2022/02/03 12:21:37;;;;;;;2.07;1.70;;;;;;;10.80;97.46;98189.28;5111293;28;20295;-71
2022/02/03 12:24:17;;;;;;;1.83;1.70;;;;;;;10.79;97.86;98209.59;5112028;28;20230;-71
2022/02/03 12:26:50;;;;;;;1.50;1.40;;;;;;;10.93;97.37;98212.13;5111882;28;20221;-70
2022/02/03 12:29:22;;;;;;;1.92;1.60;;;;;;;11.05;97.05;98207.75;5099950;28;20945;-69
2022/02/03 12:32:03;;;;;;;1.97;1.80;;;;;;;11.14;94.91;98199.22;5107724;28;20212;-74
2022/02/03 12:37:42;;;;;;;1.37;1.10;;;;;;;11.22;94.66;98184.50;5105052;28;20568;-75
2022/02/03 12:40:23;;;;;;;2.53;1.23;;;;;;;11.21;95.06;98171.34;5105562;28;20267;-72
2022/02/03 12:42:54;;;;;;;1.50;1.40;;;;;;;11.08;94.58;98159.97;5109758;28;20225;-74
2022/02/03 12:45:26;;;;;;;1.20;1.10;;;;;;;10.97;94.22;98162.50;5109837;28;20237;-69
2022/02/03 12:47:54;;;;;;;2.60;1.30;;;;;;;10.92;94.99;98159.34;5111196;28;20202;-71
2022/02/03 12:50:27;;;;;;;1.90;1.53;;;;;;;10.95;94.10;98130.06;5110882;28;20218;-71
2022/02/03 12:52:54;;;;;;;1.40;1.30;;;;;;;10.92;97.29;98122.31;5110274;28;20220;-73
2022/02/03 12:55:32;;;;;;;1.30;1.10;;;;;;;10.86;97.50;98125.38;5111366;28;20214;-70
2022/02/03 12:58:02;;;;;;;1.30;1.20;;;;;;;10.88;95.91;98123.50;5115130;27;20219;-68
2022/02/03 13:00:39;;;;;;;1.83;1.40;;;;;;;10.91;95.37;98136.50;5099094;27;20219;-69
2022/02/03 13:03:10;;;;;;;1.50;1.40;;;;;;;10.97;96.36;98129.00;5110720;28;20210;-69
2022/02/03 13:05:40;;;;;;;1.50;1.40;;;;;;;11.03;96.63;98114.47;5107694;28;20863;-69
2022/02/03 13:08:08;;;;;;;1.10;1.00;;;;;;;11.03;93.93;98109.19;5110665;28;20731;-69
2022/02/03 13:10:37;;;;;;;1.27;1.00;;;;;;;11.03;93.05;98109.19;5109958;28;20252;-69
2022/02/03 13:13:17;;;;;;;1.93;1.10;;;;;;;10.99;93.73;98113.00;5109519;28;20288;-69
2022/02/03 13:15:44;;;;;;;2.13;1.30;;;;;;;11.00;93.98;98109.41;5110121;28;20300;-69
2022/02/03 13:18:16;;;;;;;1.50;1.30;;;;;;;10.89;94.54;98101.41;5110436;28;20235;-69
2022/02/03 13:20:49;;;;;;;1.20;1.10;;;;;;;10.82;94.30;98100.16;5109228;28;20267;-69
2022/02/03 13:23:22;;;;;;;2.37;1.40;;;;;;;10.79;95.35;98106.50;5110720;28;20335;-69
2022/02/03 13:26:01;;;;;;;1.53;1.43;;;;;;;10.77;95.65;98096.97;5110517;28;20322;-69
2022/02/03 13:28:37;;;;;;;1.40;1.10;;;;;;;10.76;95.25;98084.72;5107535;28;20213;-69
2022/02/03 13:31:18;;;;;;;1.30;1.20;;;;;;;10.73;94.97;98079.63;5105070;28;20587;-70
2022/02/03 13:33:57;;;;;;;1.73;1.07;;;;;;;10.71;95.35;98066.50;5100643;28;20213;-71
2022/02/03 13:36:34;;;;;;;1.30;1.20;;;;;;;10.70;96.17;98064.00;5107779;28;20206;-68
2022/02/03 13:39:08;;;;;;;1.30;1.20;;;;;;;10.67;94.17;98058.91;5104567;28;20267;-68
2022/02/03 13:41:39;;;;;;;1.67;1.20;;;;;;;10.61;95.55;98056.69;5105008;28;20220;-73
2022/02/03 13:44:07;;;;;;;1.50;1.30;;;;;;;10.60;95.95;98063.81;5109762;28;20245;-73
2022/02/03 13:46:35;;;;;;;1.40;1.20;;;;;;;10.54;96.18;98063.38;5103568;28;20220;-74
2022/02/03 13:49:03;;;;;;;1.70;1.30;;;;;;;10.47;98.04;98059.47;5110380;28;20211;-69
2022/02/03 13:51:37;;;;;;;1.53;1.23;;;;;;;10.43;97.01;98063.28;5110452;28;20220;-69
2022/02/03 13:54:13;;;;;;;1.83;1.20;;;;;;;10.42;96.64;98053.66;5109150;28;20743;-69
2022/02/03 14:11:27;;;;;;;1.77;1.57;;;;;;;10.37;97.59;98046.06;5109935;28;20220;-68
2022/02/03 14:17:26;;;;;;;2.00;1.63;;;;;;;10.27;98.22;98036.25;5101660;28;20296;-70
2022/02/03 14:22:28;;;;;;;1.93;1.50;;;;;;;10.27;100.00;98045.00;5108914;28;20301;-68
2022/02/03 14:27:43;;;;;;;1.70;1.60;;;;;;;10.29;100.00;98050.19;5112605;28;20585;-68
2022/02/03 14:30:16;;;;;;;1.97;1.80;;;;;;;10.32;100.00;98057.88;5114263;28;20215;-68
2022/02/03 14:32:43;;;;;;;1.53;1.40;;;;;;;10.32;100.00;98047.31;5114258;28;20220;-68
2022/02/03 14:35:11;;;;;;;3.33;1.40;;;;;;;10.31;100.00;98043.00;5114849;28;20218;-69
2022/02/03 14:37:45;;;;;;;1.60;1.50;;;;;;;10.29;100.00;98037.81;5114834;27;20217;-68
2022/02/03 14:42:54;;;;;;;1.23;1.13;;;;;;;10.21;100.00;98047.25;5108924;28;20212;-68
2022/02/03 14:45:20;;;;;;;1.50;1.40;;;;;;;10.17;100.00;98038.69;5114501;28;20245;-69
2022/02/03 14:47:47;;;;;;;2.53;1.53;;;;;;;10.13;100.00;98042.47;5114726;28;20214;-69
2022/02/03 14:50:14;;;;;;;2.53;2.00;;;;;;;10.10;100.00;98041.84;5114285;28;20207;-70
2022/02/03 14:52:57;;;;;;;1.97;1.70;;;;;;;10.04;100.00;98036.97;5114818;28;20336;-70
2022/02/03 14:58:22;;;;;;;3.17;1.90;;;;;;;9.93;100.00;98029.78;5114200;28;20283;-68
2022/02/03 15:00:49;;;;;;;1.83;1.67;;;;;;;9.90;100.00;98014.13;5114254;28;20248;-68
2022/02/03 15:03:17;;;;;;;1.90;1.60;;;;;;;9.88;100.00;98004.63;5114333;28;20210;-68
2022/02/03 15:05:43;;;;;;;4.27;3.60;;;;;;;9.76;100.00;98010.72;5114324;28;20237;-68
2022/02/03 15:08:17;;;;;;;2.87;2.57;;;;;;;9.76;100.00;98008.09;5114189;28;20214;-69
2022/02/03 15:10:51;;;;;;;2.23;1.90;;;;;;;9.72;100.00;97996.06;5114027;28;20266;-68
2022/02/03 15:13:32;;;;;;;2.90;2.40;;;;;;;9.67;100.00;98008.72;5114123;28;20202;-70
2022/02/03 15:16:00;;;;;;;2.20;1.80;;;;;;;9.63;100.00;98004.59;5114031;28;20229;-68
2022/02/03 15:18:26;;;;;;;7.17;5.23;;;;;;;9.59;100.00;98013.66;5113880;28;20281;-69
2022/02/03 15:20:53;;;;;;;7.83;5.63;;;;;;;9.52;100.00;98002.69;5114218;28;20221;-69
2022/02/03 15:23:20;;;;;;;7.03;4.60;;;;;;;9.47;100.00;98012.69;5112414;28;20210;-69
2022/02/03 15:25:48;;;;;;;9.50;7.23;;;;;;;9.43;100.00;98013.84;5110832;28;20241;-71
2022/02/03 15:28:14;;;;;;;19.07;12.60;;;;;;;9.37;100.00;98018.69;5113611;28;20213;-69
2022/02/03 15:30:41;;;;;;;6.27;4.87;;;;;;;9.25;100.00;98014.22;5113933;28;20234;-69
2022/02/03 15:33:07;;;;;;;5.13;3.70;;;;;;;9.21;100.00;97996.91;5112273;27;20218;-69
2022/02/03 15:35:38;;;;;;;4.47;2.93;;;;;;;9.17;100.00;97998.91;5111169;28;20218;-69
2022/02/03 15:38:06;;;;;;;7.33;5.67;;;;;;;9.08;100.00;97994.25;5112063;27;20216;-69
2022/02/03 15:40:36;;;;;;;4.03;3.40;;;;;;;9.05;100.00;97996.22;5110445;27;20208;-69
2022/02/03 15:43:07;;;;;;;4.43;3.53;;;;;;;9.02;100.00;98013.09;5113748;28;20581;-68
2022/02/03 15:45:38;;;;;;;5.57;4.47;;;;;;;8.96;100.00;98008.22;5113330;28;20242;-69
2022/02/03 15:48:26;;;;;;;7.33;5.70;;;;;;;8.90;100.00;98013.03;5113608;28;20210;-69
2022/02/03 15:56:59;;;;;;;6.57;4.90;;;;;;;8.69;100.00;98015.22;5102476;28;20220;-68
2022/02/03 16:13:41;;;;;;;18.20;11.60;;;;;;;8.34;100.00;97992.06;5110817;28;20214;-68
2022/02/03 16:18:53;;;;;;;5.73;4.43;;;;;;;8.30;100.00;97995.81;5109345;28;20238;-68
2022/02/03 16:21:26;;;;;;;4.07;3.23;;;;;;;8.29;100.00;97994.13;5112636;28;20225;-69
2022/02/03 16:24:06;;;;;;;3.70;3.10;;;;;;;8.26;100.00;97989.06;5103918;28;20218;-69
2022/02/03 16:26:54;;;;;;;6.13;3.23;;;;;;;8.18;100.00;97963.19;5112140;28;20245;-69
2022/02/03 16:51:42;;;;;;;3.53;3.23;;;;;;;7.88;100.00;98011.56;5079723;28;20224;-68
2022/02/03 16:54:12;;;;;;;4.00;3.60;;;;;;;7.85;100.00;98004.72;5098157;28;20229;-67
2022/02/03 16:56:39;;;;;;;5.47;4.23;;;;;;;7.79;100.00;98014.78;5112363;28;20248;-67
2022/02/03 16:59:05;;;;;;;6.17;4.13;;;;;;;7.82;100.00;98009.31;5104012;28;20297;-67
2022/02/03 17:01:32;;;;;;;5.37;4.20;;;;;;;7.79;100.00;98009.50;5109811;28;20221;-67
2022/02/03 17:04:00;;;;;;;5.67;3.90;;;;;;;7.74;100.00;98016.81;5112401;28;20585;-67
2022/02/03 17:06:26;;;;;;;5.10;3.70;;;;;;;7.67;100.00;98003.22;5112220;28;20234;-67
2022/02/03 17:08:53;;;;;;;3.90;3.53;;;;;;;7.60;100.00;98015.00;5111987;28;20213;-67
2022/02/03 17:11:20;;;;;;;4.03;3.63;;;;;;;7.56;100.00;98010.03;5111494;28;20214;-67
2022/02/03 17:13:47;;;;;;;4.57;4.10;;;;;;;7.54;100.00;98004.03;5111590;28;20210;-67
2022/02/03 17:16:16;;;;;;;4.07;3.67;;;;;;;7.58;100.00;98016.03;5111885;28;20759;-67
2022/02/03 17:18:42;;;;;;;4.57;3.93;;;;;;;7.56;100.00;98010.03;5111739;28;20245;-67
2022/02/03 17:21:10;;;;;;;4.27;3.87;;;;;;;7.51;100.00;98010.31;5112133;28;20217;-67
2022/02/03 17:23:37;;;;;;;3.90;3.47;;;;;;;7.52;100.00;98016.38;5112180;28;20218;-67
2022/02/03 17:26:10;;;;;;;4.93;4.20;;;;;;;7.54;100.00;98009.28;5111782;28;20247;-67
2022/02/03 17:28:38;;;;;;;4.23;3.83;;;;;;;7.52;100.00;98004.09;5108600;28;20223;-67
2022/02/03 17:31:10;;;;;;;4.97;4.47;;;;;;;7.56;100.00;98002.13;5110990;28;20211;-67
2022/02/03 17:53:39;;;;;;;6.47;5.87;;;;;;;7.26;100.00;98022.34;5105486;28;20698;-68
2022/02/03 18:09:43;;;;;;;6.90;6.00;;;;;;;7.17;100.00;98014.13;5109917;28;20292;-67
2022/02/03 18:18:09;;;;;;;7.83;6.37;;;;;;;7.00;100.00;98022.97;5112906;28;20836;-68
2022/02/03 18:29:42;;;;;;;7.17;6.47;;;;;;;6.93;100.00;98020.78;5099882;28;21169;-67
2022/02/03 18:46:15;;;;;;;7.60;6.47;;;;;;;6.91;100.00;98014.78;5108532;28;20344;-67
2022/02/03 18:51:27;;;;;;;8.47;6.67;;;;;;;6.71;100.00;97999.28;5108314;28;20217;-68